sensor_id;sensor_type;location;lat;lon;timestamp;pressure;altitude;pressure_sealevel;temperature;humidity
76553;BME280;65395;53.168;18.156;2023-11-21T00:01:03;100440.08;;;1.26;90.86
76553;BME280;65395;53.168;18.156;2023-11-21T00:03:39;100442.66;;;1.26;90.85
76553;BME280;65395;53.168;18.156;2023-11-21T00:06:07;100449.35;;;1.25;91.02
76553;BME280;65395;53.168;18.156;2023-11-21T00:08:35;100451.47;;;1.25;91.13
76553;BME280;65395;53.168;18.156;2023-11-21T00:11:03;100456.64;;;1.26;91.07
76553;BME280;65395;53.168;18.156;2023-11-21T00:13:32;100455.98;;;1.27;91.11
76553;BME280;65395;53.168;18.156;2023-11-21T00:15:59;100461.95;;;1.27;90.99
76553;BME280;65395;53.168;18.156;2023-11-21T00:18:26;100467.59;;;1.26;91.02
76553;BME280;65395;53.168;18.156;2023-11-21T00:20:53;100471.53;;;1.23;90.98
76553;BME280;65395;53.168;18.156;2023-11-21T00:23:20;100469.79;;;1.22;91.00
76553;BME280;65395;53.168;18.156;2023-11-21T00:25:47;100466.11;;;1.20;91.07
76553;BME280;65395;53.168;18.156;2023-11-21T00:28:14;100467.46;;;1.16;90.85
76553;BME280;65395;53.168;18.156;2023-11-21T00:30:41;100468.11;;;1.15;90.91
76553;BME280;65395;53.168;18.156;2023-11-21T00:33:08;100470.20;;;1.15;91.04
76553;BME280;65395;53.168;18.156;2023-11-21T00:35:39;100474.02;;;1.13;91.08
76553;BME280;65395;53.168;18.156;2023-11-21T00:38:06;100475.06;;;1.13;90.98
76553;BME280;65395;53.168;18.156;2023-11-21T00:40:34;100477.10;;;1.13;91.01
76553;BME280;65395;53.168;18.156;2023-11-21T00:43:01;100474.91;;;1.11;90.95
76553;BME280;65395;53.168;18.156;2023-11-21T00:45:28;100481.65;;;1.06;90.77
76553;BME280;65395;53.168;18.156;2023-11-21T00:47:55;100483.48;;;1.05;90.91
76553;BME280;65395;53.168;18.156;2023-11-21T00:50:23;100493.94;;;1.04;90.89
76553;BME280;65395;53.168;18.156;2023-11-21T00:52:50;100501.66;;;1.04;90.83
76553;BME280;65395;53.168;18.156;2023-11-21T00:55:18;100498.48;;;1.03;90.98
76553;BME280;65395;53.168;18.156;2023-11-21T00:57:45;100497.81;;;1.03;91.02
76553;BME280;65395;53.168;18.156;2023-11-21T01:00:12;100501.10;;;1.01;90.97
76553;BME280;65395;53.168;18.156;2023-11-21T01:02:44;100496.42;;;1.02;90.94
76553;BME280;65395;53.168;18.156;2023-11-21T01:05:11;100499.48;;;1.01;90.90
76553;BME280;65395;53.168;18.156;2023-11-21T01:07:38;100498.74;;;1.00;90.93
76553;BME280;65395;53.168;18.156;2023-11-21T01:10:05;100502.34;;;1.01;91.08
76553;BME280;65395;53.168;18.156;2023-11-21T01:12:35;100504.67;;;1.03;90.94
76553;BME280;65395;53.168;18.156;2023-11-21T01:15:05;100509.07;;;1.05;91.11
76553;BME280;65395;53.168;18.156;2023-11-21T01:17:34;100514.86;;;1.04;90.87
76553;BME280;65395;53.168;18.156;2023-11-21T01:20:02;100518.49;;;1.04;90.91
76553;BME280;65395;53.168;18.156;2023-11-21T01:22:32;100520.09;;;1.04;90.95
76553;BME280;65395;53.168;18.156;2023-11-21T01:24:59;100518.58;;;1.04;90.82
76553;BME280;65395;53.168;18.156;2023-11-21T01:27:26;100523.19;;;1.03;90.77
76553;BME280;65395;53.168;18.156;2023-11-21T01:29:53;100527.04;;;1.00;90.65
76553;BME280;65395;53.168;18.156;2023-11-21T01:32:20;100529.95;;;0.98;90.59
76553;BME280;65395;53.168;18.156;2023-11-21T01:34:47;100529.96;;;0.97;90.80
76553;BME280;65395;53.168;18.156;2023-11-21T01:37:15;100534.10;;;0.98;90.79
76553;BME280;65395;53.168;18.156;2023-11-21T01:39:43;100536.15;;;1.00;90.81
76553;BME280;65395;53.168;18.156;2023-11-21T01:42:11;100533.77;;;0.99;90.62
76553;BME280;65395;53.168;18.156;2023-11-21T01:44:40;100534.77;;;0.98;90.57
76553;BME280;65395;53.168;18.156;2023-11-21T01:47:08;100539.05;;;0.97;90.75
76553;BME280;65395;53.168;18.156;2023-11-21T01:49:36;100543.07;;;0.96;90.69
76553;BME280;65395;53.168;18.156;2023-11-21T01:52:03;100548.00;;;0.93;90.47
76553;BME280;65395;53.168;18.156;2023-11-21T01:54:31;100550.31;;;0.90;90.56
76553;BME280;65395;53.168;18.156;2023-11-21T01:56:59;100549.17;;;0.89;90.45
76553;BME280;65395;53.168;18.156;2023-11-21T01:59:34;100549.36;;;0.87;90.63
76553;BME280;65395;53.168;18.156;2023-11-21T02:02:01;100548.16;;;0.85;90.52
76553;BME280;65395;53.168;18.156;2023-11-21T02:04:29;100544.56;;;0.83;90.83
76553;BME280;65395;53.168;18.156;2023-11-21T02:06:56;100542.22;;;0.80;90.70
76553;BME280;65395;53.168;18.156;2023-11-21T02:09:25;100545.29;;;0.77;90.65
76553;BME280;65395;53.168;18.156;2023-11-21T02:11:53;100546.69;;;0.74;90.50
76553;BME280;65395;53.168;18.156;2023-11-21T02:14:21;100546.87;;;0.70;90.49
76553;BME280;65395;53.168;18.156;2023-11-21T02:16:50;100552.81;;;0.68;90.63
76553;BME280;65395;53.168;18.156;2023-11-21T02:19:19;100555.89;;;0.67;90.60
76553;BME280;65395;53.168;18.156;2023-11-21T02:21:50;100556.04;;;0.65;90.63
76553;BME280;65395;53.168;18.156;2023-11-21T02:24:20;100558.79;;;0.63;90.77
76553;BME280;65395;53.168;18.156;2023-11-21T02:26:48;100559.93;;;0.63;90.60
76553;BME280;65395;53.168;18.156;2023-11-21T02:29:18;100560.17;;;0.64;90.63
76553;BME280;65395;53.168;18.156;2023-11-21T02:31:51;100560.01;;;0.64;90.61
76553;BME280;65395;53.168;18.156;2023-11-21T02:34:22;100558.95;;;0.63;90.24
76553;BME280;65395;53.168;18.156;2023-11-21T02:36:51;100563.53;;;0.60;90.07
76553;BME280;65395;53.168;18.156;2023-11-21T02:39:18;100565.45;;;0.58;90.17
76553;BME280;65395;53.168;18.156;2023-11-21T02:41:48;100575.92;;;0.56;90.12
76553;BME280;65395;53.168;18.156;2023-11-21T02:44:15;100576.10;;;0.55;89.98
76553;BME280;65395;53.168;18.156;2023-11-21T02:46:42;100573.36;;;0.55;89.98
76553;BME280;65395;53.168;18.156;2023-11-21T02:49:09;100575.04;;;0.54;89.89
76553;BME280;65395;53.168;18.156;2023-11-21T02:51:38;100576.93;;;0.53;89.85
76553;BME280;65395;53.168;18.156;2023-11-21T02:54:07;100581.79;;;0.54;89.93
76553;BME280;65395;53.168;18.156;2023-11-21T02:56:35;100580.19;;;0.54;89.93
76553;BME280;65395;53.168;18.156;2023-11-21T02:59:03;100580.79;;;0.53;89.83
76553;BME280;65395;53.168;18.156;2023-11-21T03:01:31;100584.73;;;0.51;89.76
76553;BME280;65395;53.168;18.156;2023-11-21T03:03:58;100588.20;;;0.51;89.69
76553;BME280;65395;53.168;18.156;2023-11-21T03:06:25;100588.67;;;0.51;89.77
76553;BME280;65395;53.168;18.156;2023-11-21T03:08:52;100591.36;;;0.51;89.79
76553;BME280;65395;53.168;18.156;2023-11-21T03:11:19;100598.18;;;0.50;89.58
76553;BME280;65395;53.168;18.156;2023-11-21T03:13:46;100605.47;;;0.49;89.47
76553;BME280;65395;53.168;18.156;2023-11-21T03:16:15;100609.23;;;0.48;89.65
76553;BME280;65395;53.168;18.156;2023-11-21T03:18:42;100613.75;;;0.47;89.55
76553;BME280;65395;53.168;18.156;2023-11-21T03:21:09;100612.80;;;0.46;89.62
76553;BME280;65395;53.168;18.156;2023-11-21T03:23:36;100617.02;;;0.47;89.53
76553;BME280;65395;53.168;18.156;2023-11-21T03:26:04;100618.77;;;0.44;89.55
76553;BME280;65395;53.168;18.156;2023-11-21T03:28:31;100619.48;;;0.44;89.47
76553;BME280;65395;53.168;18.156;2023-11-21T03:30:58;100617.70;;;0.43;89.52
76553;BME280;65395;53.168;18.156;2023-11-21T03:33:24;100618.10;;;0.43;89.35
76553;BME280;65395;53.168;18.156;2023-11-21T03:35:51;100621.83;;;0.42;89.22
76553;BME280;65395;53.168;18.156;2023-11-21T03:38:19;100622.84;;;0.44;89.27
76553;BME280;65395;53.168;18.156;2023-11-21T03:40:47;100622.13;;;0.44;89.16
76553;BME280;65395;53.168;18.156;2023-11-21T03:43:14;100628.55;;;0.43;89.11
76553;BME280;65395;53.168;18.156;2023-11-21T03:45:41;100624.39;;;0.41;89.00
76553;BME280;65395;53.168;18.156;2023-11-21T03:48:08;100624.47;;;0.38;88.83
76553;BME280;65395;53.168;18.156;2023-11-21T03:50:38;100620.77;;;0.35;88.77
76553;BME280;65395;53.168;18.156;2023-11-21T03:53:06;100614.58;;;0.33;88.77
76553;BME280;65395;53.168;18.156;2023-11-21T03:55:33;100614.89;;;0.29;88.60
76553;BME280;65395;53.168;18.156;2023-11-21T03:58:00;100616.39;;;0.27;88.72
76553;BME280;65395;53.168;18.156;2023-11-21T04:00:27;100615.94;;;0.26;88.63
76553;BME280;65395;53.168;18.156;2023-11-21T04:02:54;100617.94;;;0.25;88.67
76553;BME280;65395;53.168;18.156;2023-11-21T04:05:23;100624.56;;;0.25;88.67
76553;BME280;65395;53.168;18.156;2023-11-21T04:07:50;100628.41;;;0.23;88.60
76553;BME280;65395;53.168;18.156;2023-11-21T04:10:17;100628.77;;;0.22;88.52
76553;BME280;65395;53.168;18.156;2023-11-21T04:12:44;100632.98;;;0.21;88.28
76553;BME280;65395;53.168;18.156;2023-11-21T04:15:12;100634.77;;;0.21;88.08
76553;BME280;65395;53.168;18.156;2023-11-21T04:17:41;100633.98;;;0.18;87.90
76553;BME280;65395;53.168;18.156;2023-11-21T04:20:08;100636.15;;;0.15;87.93
76553;BME280;65395;53.168;18.156;2023-11-21T04:22:37;100639.80;;;0.14;87.96
76553;BME280;65395;53.168;18.156;2023-11-21T04:25:09;100643.05;;;0.13;88.11
76553;BME280;65395;53.168;18.156;2023-11-21T04:27:40;100647.11;;;0.12;87.83
76553;BME280;65395;53.168;18.156;2023-11-21T04:30:07;100651.57;;;0.09;87.78
76553;BME280;65395;53.168;18.156;2023-11-21T04:32:36;100652.72;;;0.07;87.75
76553;BME280;65395;53.168;18.156;2023-11-21T04:35:03;100659.87;;;0.05;87.91
76553;BME280;65395;53.168;18.156;2023-11-21T04:37:30;100661.23;;;0.05;88.07
76553;BME280;65395;53.168;18.156;2023-11-21T04:39:57;100656.12;;;0.06;88.13
76553;BME280;65395;53.168;18.156;2023-11-21T04:42:24;100659.48;;;0.04;88.21
76553;BME280;65395;53.168;18.156;2023-11-21T04:44:51;100664.56;;;0.04;88.14
76553;BME280;65395;53.168;18.156;2023-11-21T04:47:21;100672.57;;;0.03;88.12
76553;BME280;65395;53.168;18.156;2023-11-21T04:49:48;100672.58;;;0.02;88.29
76553;BME280;65395;53.168;18.156;2023-11-21T04:52:15;100681.33;;;0.05;88.12
76553;BME280;65395;53.168;18.156;2023-11-21T04:54:42;100680.28;;;0.05;88.14
76553;BME280;65395;53.168;18.156;2023-11-21T04:57:09;100688.21;;;0.05;88.03
76553;BME280;65395;53.168;18.156;2023-11-21T04:59:36;100689.90;;;0.01;87.96
76553;BME280;65395;53.168;18.156;2023-11-21T05:02:03;100697.57;;;0.04;88.14
76553;BME280;65395;53.168;18.156;2023-11-21T05:04:31;100702.20;;;0.05;88.29
76553;BME280;65395;53.168;18.156;2023-11-21T05:06:58;100703.70;;;0.07;88.37
76553;BME280;65395;53.168;18.156;2023-11-21T05:09:27;100704.39;;;0.07;88.39
76553;BME280;65395;53.168;18.156;2023-11-21T05:11:54;100708.80;;;0.07;88.41
76553;BME280;65395;53.168;18.156;2023-11-21T05:14:21;100708.67;;;0.08;88.45
76553;BME280;65395;53.168;18.156;2023-11-21T05:16:48;100708.60;;;0.07;88.53
76553;BME280;65395;53.168;18.156;2023-11-21T05:19:17;100706.46;;;0.07;88.59
76553;BME280;65395;53.168;18.156;2023-11-21T05:21:44;100706.67;;;0.05;88.54
76553;BME280;65395;53.168;18.156;2023-11-21T05:24:11;100705.01;;;0.05;88.68
76553;BME280;65395;53.168;18.156;2023-11-21T05:26:38;100704.69;;;0.05;88.48
76553;BME280;65395;53.168;18.156;2023-11-21T05:29:05;100705.30;;;0.04;88.67
76553;BME280;65395;53.168;18.156;2023-11-21T05:31:33;100711.86;;;0.01;88.62
76553;BME280;65395;53.168;18.156;2023-11-21T05:34:00;100720.09;;;0.01;88.57
76553;BME280;65395;53.168;18.156;2023-11-21T05:36:26;100725.52;;;0.03;88.84
76553;BME280;65395;53.168;18.156;2023-11-21T05:38:53;100732.45;;;0.04;88.66
76553;BME280;65395;53.168;18.156;2023-11-21T05:41:20;100734.02;;;0.05;88.58
76553;BME280;65395;53.168;18.156;2023-11-21T05:43:48;100742.94;;;0.03;88.27
76553;BME280;65395;53.168;18.156;2023-11-21T05:46:15;100732.66;;;-0.05;88.29
76553;BME280;65395;53.168;18.156;2023-11-21T05:48:42;100742.06;;;-0.02;88.41
76553;BME280;65395;53.168;18.156;2023-11-21T05:51:09;100744.13;;;-0.01;88.66
76553;BME280;65395;53.168;18.156;2023-11-21T05:53:38;100748.94;;;0.00;88.52
76553;BME280;65395;53.168;18.156;2023-11-21T05:56:06;100753.04;;;0.01;88.20
76553;BME280;65395;53.168;18.156;2023-11-21T05:58:33;100754.75;;;0.01;88.01
76553;BME280;65395;53.168;18.156;2023-11-21T06:01:00;100753.48;;;0.00;87.95
76553;BME280;65395;53.168;18.156;2023-11-21T06:03:27;100757.23;;;-0.01;87.84
76553;BME280;65395;53.168;18.156;2023-11-21T06:05:54;100762.89;;;-0.04;87.82
76553;BME280;65395;53.168;18.156;2023-11-21T06:08:21;100770.24;;;-0.03;87.96
76553;BME280;65395;53.168;18.156;2023-11-21T06:10:48;100773.48;;;-0.01;87.89
76553;BME280;65395;53.168;18.156;2023-11-21T06:13:16;100779.61;;;-0.03;87.59
76553;BME280;65395;53.168;18.156;2023-11-21T06:15:43;100784.36;;;-0.03;87.56
76553;BME280;65395;53.168;18.156;2023-11-21T06:18:09;100789.75;;;-0.03;87.44
76553;BME280;65395;53.168;18.156;2023-11-21T06:20:37;100795.69;;;-0.04;86.99
76553;BME280;65395;53.168;18.156;2023-11-21T06:23:04;100799.48;;;-0.05;86.76
76553;BME280;65395;53.168;18.156;2023-11-21T06:25:32;100806.75;;;-0.05;87.08
76553;BME280;65395;53.168;18.156;2023-11-21T06:28:02;100812.21;;;-0.06;86.83
76553;BME280;65395;53.168;18.156;2023-11-21T06:30:29;100818.95;;;-0.05;86.94
76553;BME280;65395;53.168;18.156;2023-11-21T06:32:56;100825.17;;;-0.03;86.94
76553;BME280;65395;53.168;18.156;2023-11-21T06:35:23;100834.84;;;0.00;86.96
76553;BME280;65395;53.168;18.156;2023-11-21T06:37:50;100835.45;;;0.01;86.64
76553;BME280;65395;53.168;18.156;2023-11-21T06:40:19;100835.79;;;0.01;86.45
76553;BME280;65395;53.168;18.156;2023-11-21T06:42:46;100836.29;;;-0.00;85.82
76553;BME280;65395;53.168;18.156;2023-11-21T06:45:13;100841.16;;;-0.03;85.53
76553;BME280;65395;53.168;18.156;2023-11-21T06:47:41;100840.45;;;-0.04;85.91
76553;BME280;65395;53.168;18.156;2023-11-21T06:50:09;100840.53;;;-0.04;85.94
76553;BME280;65395;53.168;18.156;2023-11-21T06:52:36;100840.89;;;-0.04;86.17
76553;BME280;65395;53.168;18.156;2023-11-21T06:55:03;100845.10;;;-0.02;86.15
76553;BME280;65395;53.168;18.156;2023-11-21T06:57:31;100851.09;;;0.00;85.88
76553;BME280;65395;53.168;18.156;2023-11-21T06:59:58;100852.11;;;0.02;85.65
76553;BME280;65395;53.168;18.156;2023-11-21T07:02:25;100859.27;;;0.02;85.61
76553;BME280;65395;53.168;18.156;2023-11-21T07:04:52;100860.51;;;0.02;85.32
76553;BME280;65395;53.168;18.156;2023-11-21T07:07:19;100864.77;;;0.03;85.34
76553;BME280;65395;53.168;18.156;2023-11-21T07:09:46;100862.30;;;0.03;85.04
76553;BME280;65395;53.168;18.156;2023-11-21T07:12:14;100869.10;;;0.04;84.88
76553;BME280;65395;53.168;18.156;2023-11-21T07:14:41;100871.05;;;0.05;85.02
76553;BME280;65395;53.168;18.156;2023-11-21T07:17:11;100871.71;;;0.06;84.92
76553;BME280;65395;53.168;18.156;2023-11-21T07:19:39;100876.34;;;0.06;84.37
76553;BME280;65395;53.168;18.156;2023-11-21T07:22:06;100878.38;;;0.06;84.39
76553;BME280;65395;53.168;18.156;2023-11-21T07:24:38;100882.31;;;0.08;84.57
76553;BME280;65395;53.168;18.156;2023-11-21T07:27:05;100884.89;;;0.08;83.96
76553;BME280;65395;53.168;18.156;2023-11-21T07:29:32;100890.14;;;0.06;84.10
76553;BME280;65395;53.168;18.156;2023-11-21T07:32:00;100891.96;;;0.07;84.25
76553;BME280;65395;53.168;18.156;2023-11-21T07:34:28;100896.48;;;0.08;84.22
76553;BME280;65395;53.168;18.156;2023-11-21T07:36:55;100898.08;;;0.10;84.25
76553;BME280;65395;53.168;18.156;2023-11-21T07:39:22;100903.56;;;0.13;84.27
76553;BME280;65395;53.168;18.156;2023-11-21T07:41:49;100908.84;;;0.17;84.40
76553;BME280;65395;53.168;18.156;2023-11-21T07:44:17;100907.77;;;0.21;84.34
76553;BME280;65395;53.168;18.156;2023-11-21T07:46:48;100910.33;;;0.26;84.42
76553;BME280;65395;53.168;18.156;2023-11-21T07:49:16;100903.45;;;0.32;84.17
76553;BME280;65395;53.168;18.156;2023-11-21T07:51:44;100903.98;;;0.38;83.96
76553;BME280;65395;53.168;18.156;2023-11-21T07:54:11;100904.21;;;0.46;84.06
76553;BME280;65395;53.168;18.156;2023-11-21T07:56:38;100904.36;;;0.54;83.96
76553;BME280;65395;53.168;18.156;2023-11-21T07:59:05;100909.01;;;0.60;83.57
76553;BME280;65395;53.168;18.156;2023-11-21T08:01:32;100911.56;;;0.64;82.71
76553;BME280;65395;53.168;18.156;2023-11-21T08:03:59;100905.02;;;0.62;83.06
76553;BME280;65395;53.168;18.156;2023-11-21T08:06:30;100915.79;;;0.73;83.12
76553;BME280;65395;53.168;18.156;2023-11-21T08:08:57;100920.27;;;0.79;82.80
76553;BME280;65395;53.168;18.156;2023-11-21T08:11:24;100920.61;;;0.79;81.55
76553;BME280;65395;53.168;18.156;2023-11-21T08:13:53;100923.55;;;0.76;81.33
76553;BME280;65395;53.168;18.156;2023-11-21T08:16:21;100923.55;;;0.71;81.11
76553;BME280;65395;53.168;18.156;2023-11-21T08:18:48;100921.97;;;0.66;80.99
76553;BME280;65395;53.168;18.156;2023-11-21T08:21:15;100922.81;;;0.65;81.55
76553;BME280;65395;53.168;18.156;2023-11-21T08:23:42;100924.61;;;0.65;81.03
76553;BME280;65395;53.168;18.156;2023-11-21T08:26:09;100926.15;;;0.64;80.80
76553;BME280;65395;53.168;18.156;2023-11-21T08:28:36;100931.40;;;0.63;80.57
76553;BME280;65395;53.168;18.156;2023-11-21T08:31:03;100929.53;;;0.63;80.48
76553;BME280;65395;53.168;18.156;2023-11-21T08:33:31;100934.29;;;0.62;80.25
76553;BME280;65395;53.168;18.156;2023-11-21T08:35:58;100929.85;;;0.64;80.47
76553;BME280;65395;53.168;18.156;2023-11-21T08:38:27;100930.20;;;0.69;80.37
76553;BME280;65395;53.168;18.156;2023-11-21T08:40:55;100928.33;;;0.74;80.39
76553;BME280;65395;53.168;18.156;2023-11-21T08:43:22;100926.88;;;0.80;79.98
76553;BME280;65395;53.168;18.156;2023-11-21T08:45:49;100922.30;;;0.81;79.22
76553;BME280;65395;53.168;18.156;2023-11-21T08:48:16;100926.63;;;0.80;79.38
76553;BME280;65395;53.168;18.156;2023-11-21T08:50:42;100931.25;;;0.82;79.75
76553;BME280;65395;53.168;18.156;2023-11-21T08:53:10;100933.48;;;0.86;80.16
76553;BME280;65395;53.168;18.156;2023-11-21T08:55:37;100931.47;;;0.93;80.13
76553;BME280;65395;53.168;18.156;2023-11-21T08:58:04;100936.27;;;1.03;80.15
76553;BME280;65395;53.168;18.156;2023-11-21T09:00:33;100937.65;;;1.16;80.16
76553;BME280;65395;53.168;18.156;2023-11-21T09:03:01;100940.27;;;1.29;80.08
76553;BME280;65395;53.168;18.156;2023-11-21T09:05:30;100944.91;;;1.42;80.13
76553;BME280;65395;53.168;18.156;2023-11-21T09:07:56;100946.71;;;1.55;79.61
76553;BME280;65395;53.168;18.156;2023-11-21T09:10:23;100947.73;;;1.64;79.39
76553;BME280;65395;53.168;18.156;2023-11-21T09:12:52;100955.16;;;1.71;78.50
76553;BME280;65395;53.168;18.156;2023-11-21T09:15:19;100957.52;;;1.74;77.85
76553;BME280;65395;53.168;18.156;2023-11-21T09:17:47;100958.28;;;1.73;77.35
76553;BME280;65395;53.168;18.156;2023-11-21T09:20:14;100955.31;;;1.75;77.62
76553;BME280;65395;53.168;18.156;2023-11-21T09:22:41;100958.41;;;1.76;77.78
76553;BME280;65395;53.168;18.156;2023-11-21T09:25:09;100959.95;;;1.77;77.77
76553;BME280;65395;53.168;18.156;2023-11-21T09:27:36;100963.11;;;1.79;77.87
76553;BME280;65395;53.168;18.156;2023-11-21T09:30:03;100966.75;;;1.79;76.91
76553;BME280;65395;53.168;18.156;2023-11-21T09:32:32;100969.98;;;1.78;77.34
76553;BME280;65395;53.168;18.156;2023-11-21T09:34:59;100977.77;;;1.79;77.75
76553;BME280;65395;53.168;18.156;2023-11-21T09:37:30;100981.09;;;1.81;77.89
76553;BME280;65395;53.168;18.156;2023-11-21T09:39:57;100985.30;;;1.84;77.88
76553;BME280;65395;53.168;18.156;2023-11-21T09:42:32;100985.30;;;1.84;77.07
76553;BME280;65395;53.168;18.156;2023-11-21T09:45:08;100989.91;;;1.82;76.87
76553;BME280;65395;53.168;18.156;2023-11-21T09:47:40;100990.46;;;1.79;76.66
76553;BME280;65395;53.168;18.156;2023-11-21T09:50:07;100998.92;;;1.77;76.66
76553;BME280;65395;53.168;18.156;2023-11-21T09:53:22;100994.73;;;1.71;75.96
76553;BME280;65395;53.168;18.156;2023-11-21T09:55:34;100997.23;;;1.65;76.40
76553;BME280;65395;53.168;18.156;2023-11-21T09:58:04;100995.45;;;1.58;75.79
76553;BME280;65395;53.168;18.156;2023-11-21T10:00:34;100994.05;;;1.51;76.10
76553;BME280;65395;53.168;18.156;2023-11-21T10:03:02;100992.96;;;1.50;76.68
76553;BME280;65395;53.168;18.156;2023-11-21T10:05:29;100992.69;;;1.47;76.52
76553;BME280;65395;53.168;18.156;2023-11-21T10:07:56;100994.64;;;1.43;76.60
76553;BME280;65395;53.168;18.156;2023-11-21T10:10:24;100996.03;;;1.41;76.80
76553;BME280;65395;53.168;18.156;2023-11-21T10:12:55;100994.61;;;1.40;76.99
76553;BME280;65395;53.168;18.156;2023-11-21T10:15:23;100990.92;;;1.40;77.00
76553;BME280;65395;53.168;18.156;2023-11-21T10:17:52;100988.20;;;1.41;77.37
76553;BME280;65395;53.168;18.156;2023-11-21T10:20:20;100996.17;;;1.42;76.94
76553;BME280;65395;53.168;18.156;2023-11-21T10:22:48;100996.30;;;1.41;76.78
76553;BME280;65395;53.168;18.156;2023-11-21T10:25:15;100997.64;;;1.39;76.37
76553;BME280;65395;53.168;18.156;2023-11-21T10:27:47;101002.42;;;1.37;77.27
76553;BME280;65395;53.168;18.156;2023-11-21T10:30:14;101004.83;;;1.40;77.22
76553;BME280;65395;53.168;18.156;2023-11-21T10:32:42;101010.58;;;1.44;77.38
76553;BME280;65395;53.168;18.156;2023-11-21T10:35:10;101015.30;;;1.48;76.90
76553;BME280;65395;53.168;18.156;2023-11-21T10:37:38;101013.44;;;1.49;76.38
76553;BME280;65395;53.168;18.156;2023-11-21T10:40:08;101015.05;;;1.45;76.73
76553;BME280;65395;53.168;18.156;2023-11-21T10:42:39;101013.96;;;1.45;77.00
76553;BME280;65395;53.168;18.156;2023-11-21T10:45:07;101017.20;;;1.47;76.99
76553;BME280;65395;53.168;18.156;2023-11-21T10:47:40;101019.05;;;1.48;77.07
76553;BME280;65395;53.168;18.156;2023-11-21T10:50:08;101018.92;;;1.51;77.15
76553;BME280;65395;53.168;18.156;2023-11-21T10:52:39;101022.21;;;1.51;76.95
76553;BME280;65395;53.168;18.156;2023-11-21T10:55:20;101021.44;;;1.53;77.16
76553;BME280;65395;53.168;18.156;2023-11-21T10:57:53;101023.99;;;1.57;77.07
76553;BME280;65395;53.168;18.156;2023-11-21T11:00:21;101024.58;;;1.58;76.44
76553;BME280;65395;53.168;18.156;2023-11-21T11:02:51;101026.55;;;1.56;76.12
76553;BME280;65395;53.168;18.156;2023-11-21T11:05:22;101022.74;;;1.58;76.51
76553;BME280;65395;53.168;18.156;2023-11-21T11:07:54;101028.84;;;1.60;76.54
76553;BME280;65395;53.168;18.156;2023-11-21T11:10:27;101029.30;;;1.61;75.63
76553;BME280;65395;53.168;18.156;2023-11-21T11:12:56;101030.45;;;1.60;75.29
76553;BME280;65395;53.168;18.156;2023-11-21T11:15:26;101029.21;;;1.58;75.40
76553;BME280;65395;53.168;18.156;2023-11-21T11:17:54;101030.52;;;1.56;75.15
76553;BME280;65395;53.168;18.156;2023-11-21T11:20:29;101036.53;;;1.54;75.67
76553;BME280;65395;53.168;18.156;2023-11-21T11:23:15;101043.40;;;1.58;76.03
76553;BME280;65395;53.168;18.156;2023-11-21T11:28:51;101048.93;;;1.65;75.44
76553;BME280;65395;53.168;18.156;2023-11-21T11:31:33;101053.92;;;1.70;75.64
76553;BME280;65395;53.168;18.156;2023-11-21T11:34:23;101062.06;;;1.75;75.07
76553;BME280;65395;53.168;18.156;2023-11-21T11:37:04;101061.08;;;1.73;74.59
76553;BME280;65395;53.168;18.156;2023-11-21T11:39:37;101065.86;;;1.74;75.06
76553;BME280;65395;53.168;18.156;2023-11-21T11:42:12;101068.20;;;1.73;73.35
76553;BME280;65395;53.168;18.156;2023-11-21T11:44:47;101079.36;;;1.68;73.40
76553;BME280;65395;53.168;18.156;2023-11-21T11:50:04;101094.34;;;1.61;74.56
76553;BME280;65395;53.168;18.156;2023-11-21T11:52:41;101097.67;;;1.59;74.34
76553;BME280;65395;53.168;18.156;2023-11-21T11:55:10;101096.02;;;1.58;74.40
76553;BME280;65395;53.168;18.156;2023-11-21T11:57:39;101096.52;;;1.54;74.21
76553;BME280;65395;53.168;18.156;2023-11-21T12:00:10;101100.02;;;1.49;74.31
76553;BME280;65395;53.168;18.156;2023-11-21T12:02:38;101096.64;;;1.46;74.72
76553;BME280;65395;53.168;18.156;2023-11-21T12:05:13;101092.80;;;1.41;74.16
76553;BME280;65395;53.168;18.156;2023-11-21T12:07:44;101096.80;;;1.36;74.73
76553;BME280;65395;53.168;18.156;2023-11-21T12:10:14;101096.27;;;1.34;74.88
76553;BME280;65395;53.168;18.156;2023-11-21T12:12:47;101097.81;;;1.31;74.93
76553;BME280;65395;53.168;18.156;2023-11-21T12:15:15;101094.67;;;1.29;75.03
76553;BME280;65395;53.168;18.156;2023-11-21T12:17:43;101093.54;;;1.26;74.79
76553;BME280;65395;53.168;18.156;2023-11-21T12:20:12;101098.85;;;1.23;75.27
76553;BME280;65395;53.168;18.156;2023-11-21T12:22:43;101103.05;;;1.23;75.78
76553;BME280;65395;53.168;18.156;2023-11-21T12:25:10;101105.84;;;1.21;75.53
76553;BME280;65395;53.168;18.156;2023-11-21T12:27:43;101106.85;;;1.20;75.67
76553;BME280;65395;53.168;18.156;2023-11-21T12:30:12;101099.47;;;1.18;75.81
76553;BME280;65395;53.168;18.156;2023-11-21T12:32:40;101097.21;;;1.17;75.68
76553;BME280;65395;53.168;18.156;2023-11-21T12:35:11;101095.30;;;1.16;75.47
76553;BME280;65395;53.168;18.156;2023-11-21T12:37:40;101095.17;;;1.13;75.53
76553;BME280;65395;53.168;18.156;2023-11-21T12:40:09;101101.84;;;1.11;75.73
76553;BME280;65395;53.168;18.156;2023-11-21T12:42:41;101100.02;;;1.11;75.53
76553;BME280;65395;53.168;18.156;2023-11-21T12:45:18;101101.41;;;1.11;75.36
76553;BME280;65395;53.168;18.156;2023-11-21T12:47:48;101104.25;;;1.10;74.51
76553;BME280;65395;53.168;18.156;2023-11-21T12:50:22;101108.10;;;1.09;74.67
76553;BME280;65395;53.168;18.156;2023-11-21T12:52:54;101115.00;;;1.04;73.81
76553;BME280;65395;53.168;18.156;2023-11-21T12:55:21;101121.27;;;1.00;74.03
76553;BME280;65395;53.168;18.156;2023-11-21T12:57:53;101123.27;;;0.98;74.19
76553;BME280;65395;53.168;18.156;2023-11-21T13:00:31;101128.23;;;0.98;74.49
76553;BME280;65395;53.168;18.156;2023-11-21T13:03:00;101129.33;;;1.00;74.13